createdAt,value
2023-01-29T00:01:09.899Z,75.70
2023-01-29T00:06:12.812Z,76.21
2023-01-29T00:11:14.662Z,77.06
2023-01-29T00:16:16.309Z,76.62
2023-01-29T00:21:19.911Z,76.05
2023-01-29T00:26:22.248Z,76.61
2023-01-29T00:31:25.391Z,75.88
2023-01-29T00:36:27.751Z,75.88
2023-01-29T00:41:49.650Z,76.05
2023-01-29T00:46:51.431Z,76.18
2023-01-29T00:52:11.844Z,76.29
2023-01-29T00:57:13.513Z,76.41
2023-01-29T01:02:34.119Z,75.60
2023-01-29T01:07:35.755Z,75.99
2023-01-29T01:12:37.411Z,75.70
2023-01-29T01:17:39.263Z,76.48
2023-01-29T01:22:41.201Z,77.02
2023-01-29T01:27:42.854Z,76.25
2023-01-29T01:32:45.126Z,76.53
2023-01-29T01:37:46.740Z,77.17
2023-01-29T01:42:50.300Z,77.06
2023-01-29T01:48:14.899Z,77.40
2023-01-29T01:53:26.879Z,76.62
2023-01-29T01:58:41.288Z,77.71
2023-01-29T02:04:10.193Z,77.42
2023-01-29T02:09:36.543Z,78.34
2023-01-29T02:14:40.237Z,78.31
2023-01-29T02:20:05.724Z,77.90
2023-01-29T02:25:32.281Z,78.42
2023-01-29T02:30:37.686Z,78.52
2023-01-29T02:35:46.315Z,78.78
2023-01-29T02:41:05.702Z,79.40
2023-01-29T02:46:16.098Z,79.43
2023-01-29T02:51:29.169Z,80.10
2023-01-29T02:56:40.363Z,80.13
2023-01-29T03:02:01.276Z,80.73
2023-01-29T03:07:37.856Z,79.07
2023-01-29T03:12:41.230Z,79.26
2023-01-29T03:17:55.114Z,79.03
2023-01-29T03:23:01.395Z,77.97
2023-01-29T03:28:23.296Z,78.49
2023-01-29T03:33:30.005Z,77.28
2023-01-29T03:38:32.161Z,77.34
2023-01-29T03:43:39.972Z,77.71
2023-01-29T03:48:59.888Z,77.73
2023-01-29T03:54:40.120Z,78.16
2023-01-29T03:59:50.550Z,78.03
2023-01-29T04:05:11.350Z,79.57
2023-01-29T04:10:27.005Z,79.07
2023-01-29T04:15:30.426Z,80.10
2023-01-29T04:20:32.275Z,79.98
2023-01-29T04:25:44.964Z,79.79
2023-01-29T04:31:07.237Z,79.74
2023-01-29T04:36:24.220Z,80.77
2023-01-29T04:41:41.051Z,81.09
2023-01-29T04:47:07.986Z,81.10
2023-01-29T04:52:20.183Z,80.92
2023-01-29T04:57:43.273Z,79.61
2023-01-29T05:02:45.269Z,80.65
2023-01-29T05:07:47.729Z,79.98
2023-01-29T05:12:55.111Z,80.88
2023-01-29T05:18:01.855Z,80.16
2023-01-29T05:23:04.174Z,80.23
2023-01-29T05:28:06.402Z,80.45
2023-01-29T05:33:19.097Z,80.54
2023-01-29T05:38:21.312Z,80.50
2023-01-29T05:43:24.483Z,80.84
2023-01-29T05:48:28.760Z,80.92
2023-01-29T05:53:31.057Z,81.12
2023-01-29T05:58:33.624Z,80.64
2023-01-29T06:03:35.268Z,80.92
2023-01-29T06:08:36.965Z,80.71
2023-01-29T06:13:38.783Z,80.68
2023-01-29T06:18:40.947Z,80.90
2023-01-29T06:23:42.708Z,80.47
2023-01-29T06:28:45.932Z,79.78
2023-01-29T06:33:47.648Z,79.29
2023-01-29T06:38:49.396Z,78.78
2023-01-29T06:43:51.477Z,78.26
2023-01-29T06:48:53.104Z,78.01
2023-01-29T06:53:56.135Z,78.86
2023-01-29T06:58:58.209Z,79.18
2023-01-29T07:03:59.863Z,78.33
2023-01-29T07:09:01.867Z,78.23
2023-01-29T07:14:04.071Z,77.36
2023-01-29T07:19:05.704Z,76.88
2023-01-29T07:24:07.530Z,77.24
2023-01-29T07:29:09.161Z,76.90
2023-01-29T07:34:10.817Z,76.70
2023-01-29T07:39:12.518Z,77.46
2023-01-29T07:44:14.427Z,77.50
2023-01-29T07:49:19.580Z,76.46
2023-01-29T07:54:21.214Z,76.02
2023-01-29T07:59:23.215Z,75.96
2023-01-29T08:04:24.999Z,76.28
2023-01-29T08:09:26.697Z,75.76
2023-01-29T08:14:28.320Z,75.61
2023-01-29T08:19:29.979Z,76.48
2023-01-29T08:24:41.826Z,75.88
2023-01-29T08:29:53.281Z,75.59
2023-01-29T08:34:54.902Z,74.42
2023-01-29T08:39:56.580Z,75.02
2023-01-29T08:44:58.204Z,74.81
2023-01-29T08:49:59.908Z,74.97
2023-01-29T08:55:01.547Z,75.09
2023-01-29T09:00:04.251Z,74.13
2023-01-29T09:05:06.412Z,74.31
2023-01-29T09:10:08.770Z,74.82
2023-01-29T09:15:10.979Z,75.52
2023-01-29T09:20:12.641Z,75.57
2023-01-29T09:25:14.805Z,75.69
2023-01-29T09:30:17.420Z,75.20
2023-01-29T09:35:19.143Z,74.74
2023-01-29T09:40:51.714Z,75.32
2023-01-29T09:46:05.066Z,74.85
2023-01-29T09:51:15.572Z,73.37
2023-01-29T09:56:20.736Z,73.58
2023-01-29T10:01:34.579Z,73.16
2023-01-29T10:06:58.843Z,74.80
2023-01-29T10:12:32.748Z,74.32
2023-01-29T10:18:13.028Z,73.61
2023-01-29T10:23:17.355Z,73.93
2023-01-29T10:28:46.430Z,72.89
2023-01-29T10:34:02.081Z,73.29
2023-01-29T10:39:04.309Z,72.78
2023-01-29T10:44:31.031Z,72.48
2023-01-29T10:49:57.671Z,72.49
2023-01-29T10:55:12.328Z,73.38
2023-01-29T11:00:31.138Z,72.92
2023-01-29T11:06:11.793Z,73.87
2023-01-29T11:11:17.210Z,74.98
2023-01-29T11:16:18.979Z,75.18
2023-01-29T11:21:21.044Z,74.73
2023-01-29T11:26:23.978Z,75.76
2023-01-29T11:31:27.257Z,74.98
2023-01-29T11:36:33.145Z,74.85
2023-01-29T11:41:43.809Z,74.46
2023-01-29T11:46:45.864Z,74.42
2023-01-29T11:51:52.237Z,73.72
2023-01-29T11:56:54.455Z,75.50
2023-01-29T12:01:56.720Z,73.11
2023-01-29T12:06:58.524Z,72.31
2023-01-29T12:12:17.932Z,71.54
2023-01-29T12:17:23.998Z,71.14
2023-01-29T12:22:47.288Z,70.65
2023-01-29T12:28:00.465Z,71.30
2023-01-29T12:33:05.195Z,71.72
2023-01-29T12:38:23.421Z,72.56
2023-01-29T12:43:42.384Z,73.47
2023-01-29T12:48:44.382Z,74.20
2023-01-29T12:53:57.776Z,74.49
2023-01-29T12:58:59.686Z,74.57
2023-01-29T13:04:15.152Z,74.23
2023-01-29T13:09:23.779Z,74.00
2023-01-29T13:14:31.697Z,74.12
2023-01-29T13:19:38.155Z,73.55
2023-01-29T13:24:41.285Z,72.70
2023-01-29T13:29:43.551Z,73.22
2023-01-29T13:34:47.450Z,73.03
2023-01-29T13:39:51.301Z,73.00
2023-01-29T13:44:55.307Z,72.75
2023-01-29T13:50:02.241Z,73.94
2023-01-29T13:55:30.982Z,73.60
2023-01-29T14:00:35.649Z,73.85
2023-01-29T14:06:00.129Z,73.91
2023-01-29T14:11:34.824Z,74.24
2023-01-29T14:16:36.616Z,74.47
2023-01-29T14:21:39.586Z,74.84
2023-01-29T14:26:43.891Z,75.11
2023-01-29T14:31:58.657Z,75.43
2023-01-29T14:37:15.834Z,75.42
2023-01-29T14:42:34.453Z,75.43
2023-01-29T14:47:39.124Z,75.75
2023-01-29T14:52:42.800Z,75.84
2023-01-29T14:57:45.357Z,76.11
2023-01-29T15:02:48.321Z,75.54
2023-01-29T15:08:13.117Z,76.37
2023-01-29T15:13:31.299Z,76.39
2023-01-29T15:18:43.265Z,76.60
2023-01-29T15:23:45.891Z,76.87
2023-01-29T15:29:03.627Z,77.51
2023-01-29T15:34:07.754Z,78.14
2023-01-29T15:39:09.427Z,78.87
2023-01-29T15:44:16.831Z,79.23
2023-01-29T15:49:26.063Z,79.29
2023-01-29T15:54:31.103Z,80.01
2023-01-29T15:59:36.735Z,80.00
2023-01-29T16:04:38.462Z,79.19
2023-01-29T16:09:40.237Z,79.73
2023-01-29T16:14:42.325Z,78.96
2023-01-29T16:19:44.050Z,78.79
2023-01-29T16:24:48.012Z,79.36
2023-01-29T16:29:49.675Z,79.26
2023-01-29T16:34:56.883Z,78.75
2023-01-29T16:39:58.854Z,78.53
2023-01-29T16:45:05.453Z,78.80
2023-01-29T16:50:24.055Z,78.27
2023-01-29T16:55:26.487Z,78.40
2023-01-29T17:00:29.568Z,77.65
2023-01-29T17:05:33.872Z,78.53
2023-01-29T17:10:36.234Z,78.43
2023-01-29T17:15:47.589Z,78.51
2023-01-29T17:20:49.975Z,78.23
2023-01-29T17:25:51.938Z,77.86
2023-01-29T17:31:05.523Z,77.66
2023-01-29T17:36:13.335Z,76.73
2023-01-29T17:41:28.043Z,77.11
2023-01-29T17:46:31.405Z,76.42
2023-01-29T17:51:33.137Z,76.37
2023-01-29T17:56:34.821Z,75.94
2023-01-29T18:01:36.423Z,75.65
2023-01-29T18:06:38.662Z,75.40
2023-01-29T18:11:41.029Z,75.26
2023-01-29T18:16:44.087Z,75.08
2023-01-29T18:21:45.691Z,75.37
2023-01-29T18:26:48.774Z,75.54
2023-01-29T18:31:50.839Z,75.08
2023-01-29T18:36:52.587Z,75.43
2023-01-29T18:41:54.291Z,75.12
2023-01-29T18:46:56.191Z,75.48
2023-01-29T18:51:57.836Z,75.75
2023-01-29T18:57:13.145Z,76.16
2023-01-29T19:02:19.341Z,76.28
2023-01-29T19:07:21.274Z,76.25
2023-01-29T19:12:23.748Z,76.35
2023-01-29T19:17:25.740Z,76.25
2023-01-29T19:22:30.849Z,76.37
2023-01-29T19:27:32.643Z,76.23
2023-01-29T19:32:34.666Z,76.28
2023-01-29T19:37:36.358Z,75.90
2023-01-29T19:42:38.400Z,75.99
2023-01-29T19:47:41.269Z,75.91
2023-01-29T19:52:51.804Z,75.90
2023-01-29T19:57:54.800Z,76.04
2023-01-29T20:02:56.447Z,76.27
2023-01-29T20:07:58.594Z,75.94
2023-01-29T20:13:00.480Z,75.96
2023-01-29T20:18:02.744Z,76.15
2023-01-29T20:23:04.565Z,75.96
2023-01-29T20:28:08.202Z,77.32
2023-01-29T20:33:10.427Z,76.99
2023-01-29T20:38:12.354Z,76.51
2023-01-29T20:43:14.154Z,77.23
2023-01-29T20:48:15.836Z,75.61
2023-01-29T20:53:17.566Z,76.83
2023-01-29T20:58:19.287Z,76.52
2023-01-29T21:03:20.945Z,76.93
2023-01-29T21:08:22.747Z,77.68
2023-01-29T21:13:25.522Z,77.88
2023-01-29T21:18:27.242Z,77.36
2023-01-29T21:23:28.980Z,77.14
2023-01-29T21:28:30.669Z,77.15
2023-01-29T21:33:33.720Z,76.00
2023-01-29T21:38:35.956Z,75.54
2023-01-29T21:43:37.923Z,74.81
2023-01-29T21:48:40.372Z,74.60
2023-01-29T21:53:42.001Z,74.99
2023-01-29T21:58:43.614Z,74.94
2023-01-29T22:03:47.179Z,74.51
2023-01-29T22:08:49.629Z,74.52
2023-01-29T22:13:51.366Z,74.76
2023-01-29T22:18:53.018Z,74.61
2023-01-29T22:23:54.644Z,73.79
2023-01-29T22:28:56.778Z,73.44
2023-01-29T22:33:58.419Z,73.94
2023-01-29T22:39:00.034Z,73.72
2023-01-29T22:44:01.804Z,73.32
2023-01-29T22:49:03.519Z,73.47
2023-01-29T22:54:05.299Z,73.33
2023-01-29T22:59:06.932Z,73.34
2023-01-29T23:04:08.969Z,73.65
2023-01-29T23:09:10.631Z,73.75
2023-01-29T23:14:12.265Z,73.46
2023-01-29T23:19:13.983Z,73.68
2023-01-29T23:24:15.673Z,73.30
2023-01-29T23:29:17.378Z,73.53
2023-01-29T23:34:19.098Z,73.09
2023-01-29T23:39:20.916Z,73.52
2023-01-29T23:44:22.583Z,73.47
2023-01-29T23:49:24.285Z,73.14
2023-01-29T23:54:25.888Z,73.31
2023-01-29T23:59:28.892Z,72.87
